Report METAR

 

LIEE - Elmas, IT
Distance from station: NO 11km
Dati ricevuti: 24/07/2024 19:50
Sereno
Sereno
 Vento da N
Vento: N 20 km/h
Temperatura: 29°C
Indice di Calore: 29°C
P.to Rugiada: 15°C
Umidità: 43%
Barometro: 1012 hPa
Sommario: Sereno
Visibility: superiore a 10 km
2024/07/24 17:50 LIEE 241750Z 36011KT CAVOK 29/15 Q1012
LIED - Decimomannu, IT
Distance from station: NO 23km
Dati ricevuti: 24/07/2024 18:55
Sereno
Sereno
 Vento da NNO
Vento: NNO 26 km/h
Temperatura: 30°C
P.to Rugiada: 11°C
Umidità: 31%
Barometro: 1011 hPa
Sommario: Sereno
Visibility: superiore a 10 km
2024/07/24 16:55 LIED 241655Z 33014KT CAVOK 30/11 Q1011